Portada
METAR-TAF:

METAR-TAF

Aeroports :

Pottstown Limerick Airport

Pottstown, Pennsilvània, Estats Units d'Amèrica

latitud: 40-14-18N, longitud: 075-33-26W, altitud: 89 m

Observació

L'informe es va fer fa 39 minuts, a les 16:54 UTC
Vent 9 kt del Nord-Est
Temperatura 4°C
Humitat 48%
Pressió 1025 hPa
Visibilitat: 16.1 km
Cel cobert a una alçada de 3500 ft

METAR: KPTW 171654Z AUTO 05009KT 10SM OVC035 04/M06 A3026 RMK AO2 SNB1557E36 SLP247 P0000 T00391056

Hora: 12:33 (17:33 UTC)


TAF: manca

Observacions i pronòstics meteorològics de més de 4000 aeroports (METAR i TAF).

Les estacions disponibles són els punts grocs i vermells al mapa.

Posi el ratolí al punt desitjat per veure el nom de l'estació.

Feu clic per veure les observacions i els pronòstics meteorològics.

Per canviar el mapa: feu clic els botons verds amb una creu de color negre per apropar; al botó verd amb un guió per allunyar la imatge; o en les fletxes verdes per a mapes adjacents.


METAR-TAF: